createdAt,value
2018-04-30T00:00:13.958Z,62.35
2018-04-30T00:01:24.273Z,61.97
2018-04-30T00:02:34.451Z,62.35
2018-04-30T00:03:44.606Z,62.64
2018-04-30T00:04:54.763Z,61.97
2018-04-30T00:06:04.916Z,62.64
2018-04-30T00:07:15.055Z,62.64
2018-04-30T00:08:25.182Z,62.55
2018-04-30T00:09:35.336Z,62.64
2018-04-30T00:10:45.521Z,62.45
2018-04-30T00:11:55.651Z,62.84
2018-04-30T00:13:05.875Z,62.84
2018-04-30T00:14:16.192Z,62.64
2018-04-30T00:15:26.466Z,62.74
2018-04-30T00:16:35.818Z,62.93
2018-04-30T00:17:45.978Z,62.84
2018-04-30T00:18:56.123Z,62.64
2018-04-30T00:20:06.371Z,62.55
2018-04-30T00:21:16.534Z,62.93
2018-04-30T00:22:26.827Z,62.74
2018-04-30T00:23:36.979Z,62.55
2018-04-30T00:24:47.169Z,63.02
2018-04-30T00:25:57.156Z,62.93
2018-04-30T00:27:07.283Z,62.55
2018-04-30T00:28:17.446Z,62.45
2018-04-30T00:29:27.659Z,62.93
2018-04-30T00:30:37.835Z,63.12
2018-04-30T00:31:48.075Z,62.84
2018-04-30T00:32:58.246Z,63.02
2018-04-30T00:34:08.024Z,62.93
2018-04-30T00:35:18.001Z,62.84
2018-04-30T00:36:27.568Z,63.51
2018-04-30T00:37:37.427Z,63.22
2018-04-30T00:38:46.930Z,63.12
2018-04-30T00:39:56.808Z,63.41
2018-04-30T00:41:07.011Z,63.22
2018-04-30T00:42:17.182Z,63.32
2018-04-30T00:43:27.105Z,63.41
2018-04-30T00:44:37.236Z,63.32
2018-04-30T00:45:47.403Z,63.22
2018-04-30T00:46:57.545Z,63.51
2018-04-30T00:48:07.704Z,63.41
2018-04-30T00:49:17.910Z,63.51
2018-04-30T00:50:28.226Z,63.41
2018-04-30T00:51:38.377Z,63.51
2018-04-30T00:52:48.682Z,63.41
2018-04-30T00:53:58.947Z,63.76
2018-04-30T00:55:08.802Z,64.09
2018-04-30T00:56:18.988Z,64.18
2018-04-30T00:57:29.125Z,64.05
2018-04-30T00:58:39.300Z,64.15
2018-04-30T00:59:49.221Z,64.53
2018-04-30T01:00:59.350Z,64.34
2018-04-30T01:02:09.486Z,64.72
2018-04-30T01:03:19.889Z,64.53
2018-04-30T01:04:29.839Z,64.63
2018-04-30T01:05:40.084Z,64.25
2018-04-30T01:06:50.351Z,65.01
2018-04-30T01:08:00.569Z,64.15
2018-04-30T01:09:10.790Z,64.05
2018-04-30T01:10:21.080Z,64.53
2018-04-30T01:11:31.250Z,64.25
2018-04-30T01:12:41.420Z,64.92
2018-04-30T01:13:51.552Z,64.92
2018-04-30T01:15:01.784Z,64.63
2018-04-30T01:16:11.980Z,64.92
2018-04-30T01:17:22.359Z,64.92
2018-04-30T01:18:32.585Z,64.63
2018-04-30T01:19:42.813Z,65.2
2018-04-30T01:20:52.987Z,64.92
2018-04-30T01:22:03.213Z,64.63
2018-04-30T01:23:13.381Z,65.11
2018-04-30T01:24:23.558Z,65.2
2018-04-30T01:25:33.695Z,65.01
2018-04-30T01:26:43.923Z,64.92
2018-04-30T01:27:54.070Z,65.46
2018-04-30T01:29:04.216Z,65.56
2018-04-30T01:30:14.364Z,65.17
2018-04-30T01:31:24.504Z,65.59
2018-04-30T01:32:34.640Z,65.56
2018-04-30T01:33:44.786Z,65.65
2018-04-30T01:34:55.164Z,65.75
2018-04-30T01:36:05.150Z,65.65
2018-04-30T01:37:14.957Z,65.75
2018-04-30T01:38:25.095Z,65.75
2018-04-30T01:39:34.967Z,66.13
2018-04-30T01:40:45.114Z,66.03
2018-04-30T01:41:54.748Z,66.03
2018-04-30T01:43:04.936Z,66.23
2018-04-30T01:44:15.065Z,66.33
2018-04-30T01:45:26.216Z,65.75
2018-04-30T01:46:36.364Z,65.84
2018-04-30T01:47:46.499Z,65.94
2018-04-30T01:48:56.626Z,65.94
2018-04-30T01:50:06.752Z,66.42
2018-04-30T01:51:16.318Z,66.42
2018-04-30T01:52:26.493Z,66.23
2018-04-30T01:53:36.647Z,66.13
2018-04-30T01:54:46.812Z,66.33
2018-04-30T01:55:56.962Z,66.23
2018-04-30T01:57:07.116Z,66.61
2018-04-30T01:58:17.241Z,66.42
2018-04-30T01:59:27.379Z,66.42
2018-04-30T02:00:37.562Z,66.61
2018-04-30T02:01:47.720Z,67.09
2018-04-30T02:02:57.968Z,66.8
2018-04-30T02:04:08.209Z,67.19
2018-04-30T02:05:18.480Z,66.96
2018-04-30T02:06:28.624Z,67.44
2018-04-30T02:07:38.748Z,66.86
2018-04-30T02:08:48.887Z,67.25
2018-04-30T02:09:59.037Z,67.63
2018-04-30T02:11:09.162Z,67.44
2018-04-30T02:12:19.339Z,67.63
2018-04-30T02:13:29.557Z,67.63
2018-04-30T02:14:39.453Z,67.25
2018-04-30T02:15:49.593Z,67.44
2018-04-30T02:16:59.745Z,67.54
2018-04-30T02:18:09.897Z,68.02
2018-04-30T02:19:20.058Z,68.02
2018-04-30T02:20:30.420Z,68.12
2018-04-30T02:21:40.574Z,68.3
2018-04-30T02:22:50.473Z,68.12
2018-04-30T02:24:00.609Z,68.12
2018-04-30T02:25:10.766Z,68.4
2018-04-30T02:26:20.903Z,68.02
2018-04-30T02:27:31.037Z,68.59
2018-04-30T02:28:40.819Z,68.21
2018-04-30T02:29:50.982Z,68.59
2018-04-30T02:31:00.949Z,68.59
2018-04-30T02:32:11.095Z,68.12
2018-04-30T02:33:21.028Z,68.21
2018-04-30T02:34:31.238Z,68.69
2018-04-30T02:35:41.127Z,68.69
2018-04-30T02:36:51.285Z,68.59
2018-04-30T02:38:01.482Z,68.88
2018-04-30T02:39:11.644Z,68.98
2018-04-30T02:40:21.773Z,68.88
2018-04-30T02:41:31.942Z,69.26
2018-04-30T02:42:42.165Z,69.36
2018-04-30T02:43:52.314Z,69.46
2018-04-30T02:45:02.480Z,69.26
2018-04-30T02:46:12.610Z,69.74
2018-04-30T02:47:22.739Z,69.65
2018-04-30T02:48:32.617Z,69.56
2018-04-30T02:49:42.520Z,69.65
2018-04-30T02:50:52.703Z,69.93
2018-04-30T02:52:02.827Z,69.46
2018-04-30T02:53:12.762Z,70.03
2018-04-30T02:54:22.978Z,69.56
2018-04-30T02:55:32.993Z,69.93
2018-04-30T02:56:43.189Z,69.65
2018-04-30T02:57:53.341Z,69.84
2018-04-30T02:59:03.485Z,70.03
2018-04-30T03:00:13.634Z,69.74
2018-04-30T03:01:23.767Z,69.93
2018-04-30T03:02:33.984Z,69.84
2018-04-30T03:03:44.207Z,69.93
2018-04-30T03:04:54.374Z,69.84
2018-04-30T03:06:04.534Z,69.93
2018-04-30T03:07:14.671Z,70.23
2018-04-30T03:08:24.807Z,70.61
2018-04-30T03:09:34.685Z,70.51
2018-04-30T03:10:45.326Z,70.38
2018-04-30T03:11:55.467Z,70.67
2018-04-30T03:13:05.669Z,71.15
2018-04-30T03:14:15.801Z,71.47
2018-04-30T03:15:25.935Z,71.15
2018-04-30T03:16:35.821Z,71.53
2018-04-30T03:17:45.992Z,71.15
2018-04-30T03:18:56.154Z,71.15
2018-04-30T03:20:06.351Z,71.25
2018-04-30T03:21:16.615Z,71.25
2018-04-30T03:22:26.479Z,71.37
2018-04-30T03:23:36.610Z,71.15
2018-04-30T03:24:46.787Z,70.99
2018-04-30T03:25:57.115Z,71.15
2018-04-30T03:27:06.985Z,71.34
2018-04-30T03:28:16.879Z,71.44
2018-04-30T03:29:26.777Z,71.53
2018-04-30T03:30:36.986Z,72.01
2018-04-30T03:31:46.526Z,71.76
2018-04-30T03:32:56.775Z,71.57
2018-04-30T03:34:06.296Z,72.01
2018-04-30T03:35:15.921Z,71.95
2018-04-30T03:36:26.162Z,71.76
2018-04-30T03:37:36.323Z,72.01
2018-04-30T03:38:46.249Z,72.01
2018-04-30T03:39:56.405Z,72.14
2018-04-30T03:41:06.524Z,72.2
2018-04-30T03:42:16.703Z,72.59
2018-04-30T03:43:26.832Z,72.88
2018-04-30T03:44:36.708Z,72.39
2018-04-30T03:45:46.642Z,72.39
2018-04-30T03:46:56.787Z,72.59
2018-04-30T03:48:06.553Z,72.59
2018-04-30T03:49:16.682Z,72.68
2018-04-30T03:50:26.841Z,72.88
2018-04-30T03:51:37.064Z,72.78
2018-04-30T03:52:46.952Z,72.59
2018-04-30T03:53:57.079Z,73.35
2018-04-30T03:55:07.231Z,72.59
2018-04-30T03:56:17.367Z,72.78
2018-04-30T03:57:27.600Z,72.78
2018-04-30T03:58:37.826Z,72.68
2018-04-30T03:59:47.706Z,72.59
2018-04-30T04:00:58.072Z,72.88
2018-04-30T04:02:08.457Z,73.3
2018-04-30T04:03:18.711Z,72.59
2018-04-30T04:04:28.922Z,73.26
2018-04-30T04:05:39.121Z,73.07
2018-04-30T04:06:49.262Z,73.16
2018-04-30T04:07:59.395Z,73.2
2018-04-30T04:09:09.527Z,73.07
2018-04-30T04:10:19.663Z,72.97
2018-04-30T04:11:29.820Z,73.74
2018-04-30T04:12:40.027Z,73.68
2018-04-30T04:13:50.753Z,73.1
2018-04-30T04:15:00.613Z,73.83
2018-04-30T04:16:10.632Z,73.74
2018-04-30T04:17:20.924Z,73.58
2018-04-30T04:18:31.143Z,73.65
2018-04-30T04:19:41.388Z,73.74
2018-04-30T04:20:51.565Z,73.65
2018-04-30T04:22:01.499Z,73.55
2018-04-30T04:23:11.626Z,73.55
2018-04-30T04:24:21.759Z,74.12
2018-04-30T04:25:31.952Z,73.93
2018-04-30T04:26:42.140Z,73.93
2018-04-30T04:27:52.299Z,74.12
2018-04-30T04:29:02.450Z,74.51
2018-04-30T04:30:12.602Z,74.31
2018-04-30T04:31:22.731Z,74.22
2018-04-30T04:32:32.939Z,74.51
2018-04-30T04:33:43.064Z,73.93
2018-04-30T04:34:52.942Z,74.12
2018-04-30T04:36:03.060Z,74.41
2018-04-30T04:37:13.211Z,74.41
2018-04-30T04:38:23.340Z,74.51
2018-04-30T04:39:33.831Z,74.51
2018-04-30T04:40:43.970Z,74.31
2018-04-30T04:41:53.924Z,74.31
2018-04-30T04:43:04.037Z,74.51
2018-04-30T04:44:14.161Z,74.79
2018-04-30T04:45:24.319Z,74.79
2018-04-30T04:46:34.560Z,74.6
2018-04-30T04:47:44.770Z,74.69
2018-04-30T04:48:54.977Z,74.51
2018-04-30T04:50:05.187Z,74.69
2018-04-30T04:51:15.487Z,74.79
2018-04-30T04:52:25.697Z,74.79
2018-04-30T04:53:35.837Z,74.54
2018-04-30T04:54:46.050Z,74.51
2018-04-30T04:55:56.259Z,74.44
2018-04-30T04:57:06.540Z,74.41
2018-04-30T04:58:16.815Z,74.6
2018-04-30T04:59:26.655Z,74.06
2018-04-30T05:00:36.818Z,74.35
2018-04-30T05:01:46.965Z,73.97
2018-04-30T05:02:57.157Z,73.87
2018-04-30T05:04:07.270Z,74.26
2018-04-30T05:05:17.398Z,73.97
2018-04-30T05:06:27.532Z,73.77
2018-04-30T05:07:37.663Z,74.35
2018-04-30T05:08:47.807Z,74.06
2018-04-30T05:09:57.999Z,73.97
2018-04-30T05:11:08.155Z,74.06
2018-04-30T05:12:18.370Z,74.06
2018-04-30T05:13:28.512Z,74.1
2018-04-30T05:14:38.433Z,74.1
2018-04-30T05:15:48.304Z,73.43
2018-04-30T05:16:58.255Z,73.72
2018-04-30T05:18:08.138Z,73.43
2018-04-30T05:19:18.397Z,73.33
2018-04-30T05:20:28.594Z,73.43
2018-04-30T05:21:38.783Z,73.62
2018-04-30T05:22:48.959Z,73.52
2018-04-30T05:23:59.113Z,73.04
2018-04-30T05:25:09.315Z,73.24
2018-04-30T05:26:19.497Z,73.04
2018-04-30T05:27:29.614Z,73.33
2018-04-30T05:28:39.741Z,73.24
2018-04-30T05:29:49.922Z,73.24
2018-04-30T05:31:00.049Z,73.24
2018-04-30T05:32:10.185Z,73.24
2018-04-30T05:33:20.365Z,73.24
2018-04-30T05:34:30.508Z,73.33
2018-04-30T05:35:40.639Z,73.24
2018-04-30T05:36:50.759Z,73.24
2018-04-30T05:38:00.956Z,73.14
2018-04-30T05:39:10.831Z,73.24
2018-04-30T05:40:20.607Z,73.14
2018-04-30T05:41:30.564Z,73.04
2018-04-30T05:42:40.823Z,73.14
2018-04-30T05:43:50.735Z,73.62
2018-04-30T05:45:00.626Z,73.43
2018-04-30T05:46:11.028Z,73.52
2018-04-30T05:47:21.208Z,73.52
2018-04-30T05:48:31.505Z,73.24
2018-04-30T05:49:41.284Z,73.43
2018-04-30T05:50:51.438Z,73.33
2018-04-30T05:52:01.609Z,73.72
2018-04-30T05:53:11.758Z,73.43
2018-04-30T05:54:21.965Z,73.81
2018-04-30T05:55:32.149Z,73.81
2018-04-30T05:56:42.431Z,74.01
2018-04-30T05:57:52.657Z,73.91
2018-04-30T05:59:02.899Z,74.39
2018-04-30T06:00:12.789Z,74.19
2018-04-30T06:01:22.714Z,74.48
2018-04-30T06:02:32.889Z,74.1
2018-04-30T06:03:42.801Z,74.58
2018-04-30T06:04:52.608Z,74.48
2018-04-30T06:06:02.564Z,74.01
2018-04-30T06:07:12.545Z,74.77
2018-04-30T06:08:22.494Z,74.39
2018-04-30T06:09:32.615Z,74.48
2018-04-30T06:10:42.484Z,74.29
2018-04-30T06:11:52.604Z,74.58
2018-04-30T06:13:02.763Z,74.68
2018-04-30T06:14:12.936Z,74.29
2018-04-30T06:15:23.117Z,74.39
2018-04-30T06:16:33.253Z,74.13
2018-04-30T06:17:43.401Z,74.43
2018-04-30T06:18:53.519Z,74.43
2018-04-30T06:20:03.678Z,74.9
2018-04-30T06:21:13.823Z,74.33
2018-04-30T06:22:24.073Z,74.23
2018-04-30T06:23:34.257Z,74.62
2018-04-30T06:24:44.401Z,74.29
2018-04-30T06:25:54.629Z,75.06
2018-04-30T06:27:04.789Z,74.96
2018-04-30T06:28:15.128Z,75
2018-04-30T06:29:25.334Z,75.29
2018-04-30T06:30:35.564Z,75.2
2018-04-30T06:31:45.790Z,75.1
2018-04-30T06:32:56.034Z,75.1
2018-04-30T06:34:06.204Z,75
2018-04-30T06:35:16.357Z,74.81
2018-04-30T06:36:26.641Z,75
2018-04-30T06:37:36.842Z,75.1
2018-04-30T06:38:47.046Z,75.67
2018-04-30T06:39:57.341Z,75.57
2018-04-30T06:41:07.555Z,75.38
2018-04-30T06:42:17.798Z,75.77
2018-04-30T06:43:28.063Z,75.54
2018-04-30T06:44:38.230Z,75.57
2018-04-30T06:45:48.110Z,75.87
2018-04-30T06:46:58.272Z,75.67
2018-04-30T06:48:08.435Z,75.38
2018-04-30T06:49:18.732Z,75.48
2018-04-30T06:50:28.886Z,75.57
2018-04-30T06:51:39.099Z,75.48
2018-04-30T06:52:48.998Z,75.38
2018-04-30T06:53:59.124Z,75.23
2018-04-30T06:55:09.278Z,75.13
2018-04-30T06:56:19.467Z,74.94
2018-04-30T06:57:29.738Z,74.65
2018-04-30T06:58:39.654Z,75.71
2018-04-30T06:59:49.517Z,75.52
2018-04-30T07:00:59.648Z,75.62
2018-04-30T07:02:09.631Z,75.04
2018-04-30T07:03:19.817Z,75.04
2018-04-30T07:04:30.008Z,74.94
2018-04-30T07:05:40.216Z,75.13
2018-04-30T07:06:50.406Z,74.85
2018-04-30T07:08:00.595Z,74.94
2018-04-30T07:09:10.990Z,74.94
2018-04-30T07:10:21.438Z,75.23
2018-04-30T07:11:31.613Z,75.07
2018-04-30T07:12:41.769Z,74.98
2018-04-30T07:13:51.646Z,75.27
2018-04-30T07:15:01.774Z,74.79
2018-04-30T07:16:11.923Z,74.98
2018-04-30T07:17:22.089Z,74.79
2018-04-30T07:18:32.296Z,75.07
2018-04-30T07:19:42.517Z,75.02
2018-04-30T07:20:52.656Z,74.63
2018-04-30T07:22:02.831Z,74.63
2018-04-30T07:23:15.767Z,74.34
2018-04-30T07:24:25.673Z,74.54
2018-04-30T07:25:35.582Z,74.15
2018-04-30T07:26:45.714Z,74.15
2018-04-30T07:29:09.580Z,74.15
2018-04-30T07:30:19.874Z,73.8
2018-04-30T07:31:30.049Z,73.71
2018-04-30T07:32:40.227Z,73.51
2018-04-30T07:33:50.486Z,73.42
2018-04-30T07:35:00.632Z,72.84
2018-04-30T07:36:10.767Z,72.74
2018-04-30T07:37:21.061Z,72.94
2018-04-30T07:38:31.287Z,72.49
2018-04-30T07:39:41.457Z,72.39
2018-04-30T07:40:51.667Z,71.81
2018-04-30T07:42:01.807Z,71.62
2018-04-30T07:43:11.994Z,71.66
2018-04-30T07:44:22.168Z,71.37
2018-04-30T07:45:32.334Z,70.79
2018-04-30T07:46:42.487Z,71.08
2018-04-30T07:47:52.647Z,70.31
2018-04-30T07:49:02.791Z,70.98
2018-04-30T07:50:12.794Z,71.18
2018-04-30T07:51:22.953Z,70.79
2018-04-30T07:52:33.120Z,70.89
2018-04-30T07:53:43.348Z,70.89
2018-04-30T07:54:53.612Z,70.98
2018-04-30T07:56:03.764Z,70.79
2018-04-30T07:57:14.066Z,71.08
2018-04-30T07:58:24.294Z,70.31
2018-04-30T07:59:34.454Z,70.06
2018-04-30T08:00:44.624Z,69.87
2018-04-30T08:01:54.756Z,69.38
2018-04-30T08:03:05.113Z,69.19
2018-04-30T08:04:15.636Z,69.32
2018-04-30T08:05:25.792Z,69.03
2018-04-30T08:06:35.704Z,68.49
2018-04-30T08:07:46.007Z,67.23
2018-04-30T08:08:56.159Z,67.43
2018-04-30T08:10:06.388Z,66.56
2018-04-30T08:11:16.655Z,66.46
2018-04-30T08:12:26.546Z,66.59
2018-04-30T08:13:36.689Z,65.82
2018-04-30T08:14:46.841Z,65.34
2018-04-30T08:15:56.777Z,65.34
2018-04-30T08:17:06.917Z,64.98
2018-04-30T08:18:16.809Z,64.69
2018-04-30T08:19:26.960Z,64.4
2018-04-30T08:20:36.859Z,64.89
2018-04-30T08:21:47.049Z,64.5
2018-04-30T08:22:56.865Z,64.34
2018-04-30T08:24:06.831Z,63.76
2018-04-30T08:25:16.983Z,63.02
2018-04-30T08:26:27.129Z,61.69
2018-04-30T08:27:37.266Z,60.88
2018-04-30T08:28:47.427Z,59.69
2018-04-30T08:29:57.595Z,57.87
2018-04-30T08:31:07.882Z,57.03
2018-04-30T08:32:17.812Z,56.64
2018-04-30T08:33:27.953Z,55.93
2018-04-30T08:34:37.840Z,55.5
2018-04-30T08:35:48.019Z,55.24
2018-04-30T08:36:58.173Z,55.02
2018-04-30T08:38:08.356Z,55.31
2018-04-30T08:39:18.526Z,55.47
2018-04-30T08:40:28.939Z,55.44
2018-04-30T08:41:38.948Z,55.62
2018-04-30T08:42:49.177Z,55.4
2018-04-30T08:43:59.427Z,55.85
2018-04-30T08:45:09.796Z,56.6
2018-04-30T08:46:19.987Z,56.7
2018-04-30T08:47:30.159Z,57.05
2018-04-30T08:48:40.305Z,57.6
2018-04-30T08:49:50.203Z,57.89
2018-04-30T08:51:00.341Z,57.67
2018-04-30T08:52:10.737Z,58.54
2018-04-30T08:53:20.795Z,58.9
2018-04-30T08:54:30.577Z,59.38
2018-04-30T08:55:40.767Z,59.55
2018-04-30T08:56:50.693Z,60.03
2018-04-30T08:58:00.848Z,59.83
2018-04-30T08:59:11.032Z,60.58
2018-04-30T09:00:21.348Z,60.1
2018-04-30T09:01:31.495Z,60.64
2018-04-30T09:02:41.636Z,60.93
2018-04-30T09:03:51.989Z,60.83
2018-04-30T09:05:01.973Z,61.19
2018-04-30T09:06:12.227Z,62.25
2018-04-30T09:07:22.497Z,61.58
2018-04-30T09:08:32.437Z,62.35
2018-04-30T09:09:42.824Z,62.8
2018-04-30T09:10:53.324Z,62.7
2018-04-30T09:12:03.487Z,62.7
2018-04-30T09:13:13.636Z,63.28
2018-04-30T09:14:23.801Z,63.18
2018-04-30T09:15:33.947Z,63.38
2018-04-30T09:16:44.276Z,63.73
2018-04-30T09:17:54.183Z,63.54
2018-04-30T09:19:04.102Z,63.64
2018-04-30T09:20:14.022Z,63.64
2018-04-30T09:21:24.162Z,63.44
2018-04-30T09:22:34.341Z,63.6
2018-04-30T09:23:44.587Z,63.51
2018-04-30T09:24:54.993Z,63.51
2018-04-30T09:26:05.483Z,63.31
2018-04-30T09:27:15.669Z,63.89
2018-04-30T09:28:25.832Z,64.15
2018-04-30T09:29:36.073Z,64.05
2018-04-30T09:30:45.956Z,64.05
2018-04-30T09:31:56.206Z,64.34
2018-04-30T09:33:06.417Z,64.05
2018-04-30T09:34:16.630Z,64.05
2018-04-30T09:35:26.560Z,64.15
2018-04-30T09:36:36.754Z,63.95
2018-04-30T09:37:46.940Z,63.95
2018-04-30T09:38:57.088Z,64.34
2018-04-30T09:40:07.283Z,64.15
2018-04-30T09:41:17.287Z,64.15
2018-04-30T09:42:27.525Z,63.83
2018-04-30T09:43:37.348Z,63.83
2018-04-30T09:44:47.488Z,64.31
2018-04-30T09:45:57.891Z,63.92
2018-04-30T09:47:08.116Z,64.02
2018-04-30T09:48:18.125Z,63.92
2018-04-30T09:49:28.642Z,63.83
2018-04-30T09:50:38.823Z,64.02
2018-04-30T09:51:49.010Z,64.12
2018-04-30T09:52:59.227Z,64.02
2018-04-30T09:54:09.419Z,64.4
2018-04-30T09:55:19.563Z,64.12
2018-04-30T09:56:29.782Z,64.05
2018-04-30T09:57:40.168Z,64.31
2018-04-30T09:58:50.463Z,64.4
2018-04-30T10:00:00.618Z,65.01
2018-04-30T10:01:10.680Z,65.27
2018-04-30T10:02:20.911Z,65.46
2018-04-30T10:03:31.089Z,65.75
2018-04-30T10:04:41.256Z,66.14
2018-04-30T10:05:51.485Z,66.33
2018-04-30T10:07:01.654Z,66.42
2018-04-30T10:08:11.941Z,66.04
2018-04-30T10:09:22.205Z,66.39
2018-04-30T10:10:32.491Z,66.1
2018-04-30T10:11:42.737Z,66.14
2018-04-30T10:12:52.895Z,66.04
2018-04-30T10:14:03.065Z,66.52
2018-04-30T10:15:13.226Z,66.52
2018-04-30T10:16:22.884Z,66.52
2018-04-30T10:17:33.255Z,66.33
2018-04-30T10:18:43.475Z,66.14
2018-04-30T10:19:53.697Z,65.75
2018-04-30T10:21:03.948Z,66.23
2018-04-30T10:22:14.127Z,66.33
2018-04-30T10:23:24.380Z,66.33
2018-04-30T10:24:34.792Z,65.75
2018-04-30T10:25:44.933Z,66.04
2018-04-30T10:26:55.083Z,65.94
2018-04-30T10:28:05.275Z,66.04
2018-04-30T10:29:15.521Z,65.75
2018-04-30T10:30:25.676Z,66.14
2018-04-30T10:31:35.963Z,66.14
2018-04-30T10:32:46.209Z,66.14
2018-04-30T10:33:56.430Z,65.75
2018-04-30T10:35:06.627Z,66.33
2018-04-30T10:36:16.840Z,66.04
2018-04-30T10:37:26.733Z,65.94
2018-04-30T10:38:36.907Z,65.66
2018-04-30T10:39:47.042Z,66.23
2018-04-30T10:40:57.231Z,66.14
2018-04-30T10:42:07.401Z,65.94
2018-04-30T10:43:17.579Z,65.75
2018-04-30T10:44:28.024Z,65.94
2018-04-30T10:45:38.222Z,66.23
2018-04-30T10:46:48.647Z,65.94
2018-04-30T10:47:58.803Z,65.84
2018-04-30T10:49:08.977Z,66.23
2018-04-30T10:50:19.138Z,65.94
2018-04-30T10:51:30.303Z,66.27
2018-04-30T10:52:40.627Z,65.78
2018-04-30T10:53:50.772Z,65.43
2018-04-30T10:55:01.899Z,65.63
2018-04-30T10:56:12.066Z,65.14
2018-04-30T10:57:22.308Z,64.18
2018-04-30T10:58:32.566Z,63.89
2018-04-30T10:59:42.807Z,62.93
2018-04-30T11:00:52.717Z,62.77
2018-04-30T11:02:02.880Z,62.16
2018-04-30T11:03:13.079Z,61.49
2018-04-30T11:04:23.214Z,61.49
2018-04-30T11:05:33.482Z,61.36
2018-04-30T11:06:43.617Z,60.59
2018-04-30T11:07:53.408Z,60.37
2018-04-30T11:09:03.545Z,60.37
2018-04-30T11:10:13.701Z,60.94
2018-04-30T11:11:23.958Z,60.56
2018-04-30T11:12:34.391Z,60.46
2018-04-30T11:13:45.555Z,60.46
2018-04-30T11:14:55.732Z,60.08
2018-04-30T11:16:05.632Z,60.17
2018-04-30T11:17:15.547Z,60.27
2018-04-30T11:18:25.765Z,60.37
2018-04-30T11:19:35.665Z,60.46
2018-04-30T11:20:45.835Z,60.37
2018-04-30T11:21:56.019Z,60.75
2018-04-30T11:23:06.214Z,60.56
2018-04-30T11:24:15.896Z,60.66
2018-04-30T11:25:26.087Z,59.89
2018-04-30T11:26:36.244Z,60.01
2018-04-30T11:27:46.570Z,59.63
2018-04-30T11:28:56.704Z,59.17
2018-04-30T11:30:06.872Z,58.89
2018-04-30T11:31:17.019Z,57.76
2018-04-30T11:32:26.804Z,56.92
2018-04-30T11:33:36.987Z,56.47
2018-04-30T11:34:47.402Z,55.44
2018-04-30T11:35:57.633Z,54.79
2018-04-30T11:37:07.872Z,52.73
2018-04-30T11:38:18.161Z,53.03
2018-04-30T11:39:28.343Z,53.19
2018-04-30T11:40:38.577Z,53.58
2018-04-30T11:41:48.830Z,53.45
2018-04-30T11:42:59.447Z,54.22
2018-04-30T11:44:10.774Z,53.65
2018-04-30T11:45:22.243Z,53.27
2018-04-30T11:46:32.876Z,54.3
2018-04-30T11:47:43.046Z,54.1
2018-04-30T11:48:53.228Z,53.23
2018-04-30T11:50:03.477Z,52.97
2018-04-30T11:51:13.697Z,52.87
2018-04-30T11:52:23.928Z,52.33
2018-04-30T11:53:34.126Z,52.52
2018-04-30T11:54:44.326Z,53.13
2018-04-30T11:55:54.517Z,52.16
2018-04-30T11:57:05.735Z,51.58
2018-04-30T11:58:16.050Z,52.16
2018-04-30T11:59:25.947Z,52.45
2018-04-30T12:00:36.286Z,51.58
2018-04-30T12:01:45.933Z,51.22
2018-04-30T12:02:56.187Z,49.58
2018-04-30T12:04:06.441Z,49.68
2018-04-30T12:05:16.675Z,49.29
2018-04-30T12:06:26.896Z,49.29
2018-04-30T12:07:37.116Z,48.42
2018-04-30T12:08:47.343Z,48.49
2018-04-30T12:09:57.972Z,49.07
2018-04-30T12:11:09.265Z,48.3
2018-04-30T12:12:20.079Z,48.11
2018-04-30T12:13:30.383Z,47.89
2018-04-30T12:14:40.240Z,47.89
2018-04-30T12:15:50.182Z,47.12
2018-04-30T12:17:00.453Z,48.08
2018-04-30T12:18:10.661Z,47.99
2018-04-30T12:19:20.944Z,47.03
2018-04-30T12:22:58.329Z,45.79
2018-04-30T12:24:08.243Z,46.18
2018-04-30T12:25:18.199Z,46.18
2018-04-30T12:26:28.448Z,46.56
2018-04-30T12:27:38.637Z,46.08
2018-04-30T12:28:48.859Z,46.69
2018-04-30T12:29:58.828Z,46.01
2018-04-30T12:31:09.023Z,46.11
2018-04-30T12:32:19.229Z,46.11
2018-04-30T12:33:29.110Z,46.18
2018-04-30T12:34:39.840Z,46.18
2018-04-30T12:35:50.623Z,46.18
2018-04-30T12:37:02.122Z,46.86
2018-04-30T12:38:13.305Z,46.35
2018-04-30T12:39:23.819Z,46.25
2018-04-30T12:40:33.665Z,46.15
2018-04-30T12:41:43.855Z,46.73
2018-04-30T12:42:53.818Z,47.03
2018-04-30T12:44:04.148Z,47.41
2018-04-30T12:45:15.475Z,47.22
2018-04-30T12:46:25.792Z,47.03
2018-04-30T12:47:35.992Z,47.03
2018-04-30T12:48:46.201Z,47.12
2018-04-30T12:49:56.387Z,47.22
2018-04-30T12:51:06.625Z,47.31
2018-04-30T12:52:16.816Z,46.95
2018-04-30T12:53:27.008Z,46.66
2018-04-30T12:54:37.208Z,46.95
2018-04-30T12:55:47.414Z,46.69
2018-04-30T12:56:59.604Z,46.4
2018-04-30T12:58:11.245Z,46.49
2018-04-30T12:59:21.476Z,46.3
2018-04-30T13:00:31.815Z,45.34
2018-04-30T13:01:42.038Z,45.31
2018-04-30T13:02:51.790Z,45.51
2018-04-30T13:04:02.650Z,45.29
2018-04-30T13:05:14.201Z,45.97
2018-04-30T13:06:25.309Z,45.97
2018-04-30T13:07:36.106Z,45.84
2018-04-30T13:08:46.830Z,45.29
2018-04-30T13:09:57.433Z,45.56
2018-04-30T13:11:07.651Z,46.52
2018-04-30T13:12:17.936Z,46.14
2018-04-30T13:13:28.178Z,46.14
2018-04-30T13:14:38.241Z,46.52
2018-04-30T13:15:48.482Z,46.52
2018-04-30T13:16:58.458Z,45.75
2018-04-30T13:18:08.667Z,46.42
2018-04-30T13:19:18.833Z,45.94
2018-04-30T13:20:29.105Z,45.97
2018-04-30T13:21:39.281Z,45.87
2018-04-30T13:22:49.520Z,46.15
2018-04-30T13:23:59.693Z,45.87
2018-04-30T13:25:09.865Z,45.56
2018-04-30T13:26:20.051Z,45.94
2018-04-30T13:27:30.257Z,46.04
2018-04-30T13:28:40.783Z,45.94
2018-04-30T13:29:50.958Z,45.94
2018-04-30T13:31:01.146Z,45.94
2018-04-30T13:32:12.293Z,45.94
2018-04-30T13:33:22.483Z,45.27
2018-04-30T13:34:32.658Z,44.69
2018-04-30T13:35:42.824Z,44.31
2018-04-30T13:36:53.060Z,44.4
2018-04-30T13:38:03.304Z,44.4
2018-04-30T13:39:13.454Z,44.21
2018-04-30T13:40:24.641Z,44.49
2018-04-30T13:41:34.886Z,44.4
2018-04-30T13:42:44.902Z,43.54
2018-04-30T13:43:55.057Z,43.82
2018-04-30T13:45:05.232Z,43.75
2018-04-30T13:46:15.135Z,43.65
2018-04-30T13:47:25.595Z,44.04
2018-04-30T13:48:36.003Z,42.79
2018-04-30T13:49:46.313Z,43.15
2018-04-30T13:50:56.630Z,42.88
2018-04-30T13:52:06.938Z,42.28
2018-04-30T13:53:17.110Z,43.24
2018-04-30T13:54:27.310Z,42.67
2018-04-30T13:55:37.640Z,42.38
2018-04-30T13:56:47.449Z,42.57
2018-04-30T13:57:57.217Z,42.67
2018-04-30T13:59:07.370Z,42.38
2018-04-30T14:00:17.522Z,42.86
2018-04-30T14:01:27.437Z,43.24
2018-04-30T14:02:37.653Z,43.54
2018-04-30T14:03:47.837Z,43.99
2018-04-30T14:04:57.999Z,43.51
2018-04-30T14:06:08.178Z,43.32
2018-04-30T14:07:18.342Z,43.03
2018-04-30T14:08:28.512Z,42.84
2018-04-30T14:09:38.149Z,43.03
2018-04-30T14:10:48.052Z,43.32
2018-04-30T14:11:58.243Z,43.51
2018-04-30T14:13:08.512Z,44.19
2018-04-30T14:14:18.680Z,43.32
2018-04-30T14:15:28.563Z,42.19
2018-04-30T14:16:38.730Z,40.74
2018-04-30T14:17:48.912Z,41.03
2018-04-30T14:18:59.084Z,41.03
2018-04-30T14:20:09.312Z,40.84
2018-04-30T14:21:19.475Z,41.13
2018-04-30T14:22:29.839Z,41.41
2018-04-30T14:23:40.098Z,41.41
2018-04-30T14:24:50.053Z,41.71
2018-04-30T14:26:01.203Z,42.28
2018-04-30T14:27:11.358Z,42.09
2018-04-30T14:28:21.530Z,42.09
2018-04-30T14:29:31.705Z,41.71
2018-04-30T14:30:41.907Z,41.51
2018-04-30T14:31:52.132Z,41.51
2018-04-30T14:33:02.067Z,41.89
2018-04-30T14:34:11.878Z,41.71
2018-04-30T14:35:22.062Z,42.09
2018-04-30T14:36:32.402Z,42.28
2018-04-30T14:37:42.672Z,42.07
2018-04-30T14:38:52.830Z,42.26
2018-04-30T14:40:03.063Z,42.36
2018-04-30T14:41:13.272Z,42.07
2018-04-30T14:42:23.160Z,42.84
2018-04-30T14:43:33.329Z,42.26
2018-04-30T14:44:43.665Z,42.74
2018-04-30T14:45:53.816Z,41.78
2018-04-30T14:47:03.983Z,42.07
2018-04-30T14:48:14.171Z,42.16
2018-04-30T14:49:24.351Z,42.36
2018-04-30T14:50:34.541Z,41.68
2018-04-30T14:51:44.459Z,41.56
2018-04-30T14:52:55.584Z,41.76
2018-04-30T14:54:05.772Z,42.33
2018-04-30T14:55:15.977Z,42.33
2018-04-30T14:56:26.222Z,41.47
2018-04-30T14:57:36.399Z,41.39
2018-04-30T14:58:46.646Z,41.49
2018-04-30T14:59:56.851Z,40.72
2018-04-30T15:01:07.037Z,40.72
2018-04-30T15:02:17.288Z,40.43
2018-04-30T15:03:27.532Z,40.72
2018-04-30T15:04:37.328Z,40.43
2018-04-30T15:05:47.257Z,40.34
2018-04-30T15:06:57.429Z,40.24
2018-04-30T15:08:07.584Z,40.72
2018-04-30T15:09:17.249Z,40.43